sensor_id;sensor_type;location;lat;lon;timestamp;P1;durP1;ratioP1;P2;durP2;ratioP2
60426;SDS011;46274;47.168;27.604;2023-03-11T00:03:39;8.77;;;3.77;;
60426;SDS011;46274;47.168;27.604;2023-03-11T00:09:44;6.50;;;3.57;;
60426;SDS011;46274;47.168;27.604;2023-03-11T00:15:50;6.63;;;3.00;;
60426;SDS011;46274;47.168;27.604;2023-03-11T00:21:56;7.80;;;3.70;;
60426;SDS011;46274;47.168;27.604;2023-03-11T00:28:02;9.93;;;3.57;;
60426;SDS011;46274;47.168;27.604;2023-03-11T00:34:05;6.83;;;3.27;;
60426;SDS011;46274;47.168;27.604;2023-03-11T00:40:11;5.63;;;3.17;;
60426;SDS011;46274;47.168;27.604;2023-03-11T00:46:15;4.60;;;2.90;;
60426;SDS011;46274;47.168;27.604;2023-03-11T00:52:18;9.73;;;3.50;;
60426;SDS011;46274;47.168;27.604;2023-03-11T00:58:25;8.07;;;3.77;;
60426;SDS011;46274;47.168;27.604;2023-03-11T01:04:44;10.03;;;4.93;;
60426;SDS011;46274;47.168;27.604;2023-03-11T01:11:47;7.10;;;3.37;;
60426;SDS011;46274;47.168;27.604;2023-03-11T01:18:10;8.93;;;3.60;;
60426;SDS011;46274;47.168;27.604;2023-03-11T01:24:36;5.07;;;3.40;;
60426;SDS011;46274;47.168;27.604;2023-03-11T01:30:48;7.00;;;3.20;;
60426;SDS011;46274;47.168;27.604;2023-03-11T01:36:55;5.20;;;2.60;;
60426;SDS011;46274;47.168;27.604;2023-03-11T01:58:53;7.53;;;3.97;;
60426;SDS011;46274;47.168;27.604;2023-03-11T02:05:55;5.80;;;2.70;;
60426;SDS011;46274;47.168;27.604;2023-03-11T02:12:15;7.50;;;3.93;;
60426;SDS011;46274;47.168;27.604;2023-03-11T02:18:28;8.20;;;3.93;;
60426;SDS011;46274;47.168;27.604;2023-03-11T02:32:15;6.60;;;3.87;;
60426;SDS011;46274;47.168;27.604;2023-03-11T02:38:27;12.27;;;4.00;;
60426;SDS011;46274;47.168;27.604;2023-03-11T02:44:46;8.23;;;4.07;;
60426;SDS011;46274;47.168;27.604;2023-03-11T02:51:05;8.83;;;4.33;;
60426;SDS011;46274;47.168;27.604;2023-03-11T02:57:30;7.30;;;4.03;;
60426;SDS011;46274;47.168;27.604;2023-03-11T03:03:49;8.87;;;5.67;;
60426;SDS011;46274;47.168;27.604;2023-03-11T03:10:27;8.40;;;5.10;;
60426;SDS011;46274;47.168;27.604;2023-03-11T03:16:35;12.00;;;6.27;;
60426;SDS011;46274;47.168;27.604;2023-03-11T03:22:37;5.83;;;3.10;;
60426;SDS011;46274;47.168;27.604;2023-03-11T03:28:56;5.33;;;2.87;;
60426;SDS011;46274;47.168;27.604;2023-03-11T03:35:17;4.70;;;2.63;;
60426;SDS011;46274;47.168;27.604;2023-03-11T03:41:31;7.10;;;4.10;;
60426;SDS011;46274;47.168;27.604;2023-03-11T03:47:42;6.13;;;3.27;;
60426;SDS011;46274;47.168;27.604;2023-03-11T03:54:19;9.27;;;4.60;;
60426;SDS011;46274;47.168;27.604;2023-03-11T04:00:54;6.00;;;3.50;;
60426;SDS011;46274;47.168;27.604;2023-03-11T04:07:26;11.33;;;6.23;;
60426;SDS011;46274;47.168;27.604;2023-03-11T04:13:43;9.50;;;5.30;;
60426;SDS011;46274;47.168;27.604;2023-03-11T04:20:21;6.13;;;3.57;;
60426;SDS011;46274;47.168;27.604;2023-03-11T04:26:54;7.63;;;4.17;;
60426;SDS011;46274;47.168;27.604;2023-03-11T04:33:07;8.13;;;3.40;;
60426;SDS011;46274;47.168;27.604;2023-03-11T04:40:01;10.33;;;5.30;;
60426;SDS011;46274;47.168;27.604;2023-03-11T04:46:24;9.33;;;5.53;;
60426;SDS011;46274;47.168;27.604;2023-03-11T04:52:38;10.17;;;6.27;;
60426;SDS011;46274;47.168;27.604;2023-03-11T04:59:08;217.13;;;9.83;;
60426;SDS011;46274;47.168;27.604;2023-03-11T05:05:34;16.40;;;6.07;;
60426;SDS011;46274;47.168;27.604;2023-03-11T05:11:58;10.07;;;5.67;;
60426;SDS011;46274;47.168;27.604;2023-03-11T05:18:19;8.03;;;4.17;;
60426;SDS011;46274;47.168;27.604;2023-03-11T05:24:40;16.90;;;8.97;;
60426;SDS011;46274;47.168;27.604;2023-03-11T05:31:08;9.40;;;5.63;;
60426;SDS011;46274;47.168;27.604;2023-03-11T05:37:38;14.53;;;6.80;;
60426;SDS011;46274;47.168;27.604;2023-03-11T05:44:09;30.17;;;14.43;;
60426;SDS011;46274;47.168;27.604;2023-03-11T05:50:20;14.80;;;8.23;;
60426;SDS011;46274;47.168;27.604;2023-03-11T05:56:40;28.50;;;14.63;;
60426;SDS011;46274;47.168;27.604;2023-03-11T06:03:16;30.07;;;13.20;;
60426;SDS011;46274;47.168;27.604;2023-03-11T06:09:44;21.90;;;9.83;;
60426;SDS011;46274;47.168;27.604;2023-03-11T06:16:09;18.80;;;9.03;;
60426;SDS011;46274;47.168;27.604;2023-03-11T06:22:18;11.87;;;6.70;;
60426;SDS011;46274;47.168;27.604;2023-03-11T10:46:13;8.90;;;4.60;;
60426;SDS011;46274;47.168;27.604;2023-03-11T12:34:37;8.10;;;3.50;;
60426;SDS011;46274;47.168;27.604;2023-03-11T13:09:38;31.97;;;10.23;;
60426;SDS011;46274;47.168;27.604;2023-03-11T13:16:43;34.00;;;11.50;;
60426;SDS011;46274;47.168;27.604;2023-03-11T13:23:45;43.43;;;11.27;;
60426;SDS011;46274;47.168;27.604;2023-03-11T13:43:51;15.70;;;5.90;;
60426;SDS011;46274;47.168;27.604;2023-03-11T13:57:54;12.90;;;4.50;;
60426;SDS011;46274;47.168;27.604;2023-03-11T14:10:59;7.90;;;1.90;;
60426;SDS011;46274;47.168;27.604;2023-03-11T14:24:45;13.40;;;5.47;;
60426;SDS011;46274;47.168;27.604;2023-03-11T14:30:57;7.80;;;3.83;;
60426;SDS011;46274;47.168;27.604;2023-03-11T14:44:01;16.40;;;7.40;;
60426;SDS011;46274;47.168;27.604;2023-03-11T14:50:21;22.03;;;6.93;;
60426;SDS011;46274;47.168;27.604;2023-03-11T14:56:41;17.70;;;5.80;;
60426;SDS011;46274;47.168;27.604;2023-03-11T15:09:47;4.10;;;1.90;;
60426;SDS011;46274;47.168;27.604;2023-03-11T15:22:41;9.00;;;3.83;;
60426;SDS011;46274;47.168;27.604;2023-03-11T15:29:11;6.30;;;2.30;;
60426;SDS011;46274;47.168;27.604;2023-03-11T15:35:48;3.33;;;1.73;;
60426;SDS011;46274;47.168;27.604;2023-03-11T15:48:45;4.23;;;1.33;;
60426;SDS011;46274;47.168;27.604;2023-03-11T15:55:20;3.40;;;1.67;;
60426;SDS011;46274;47.168;27.604;2023-03-11T16:01:46;3.83;;;1.50;;
60426;SDS011;46274;47.168;27.604;2023-03-11T16:08:01;2.47;;;1.10;;
60426;SDS011;46274;47.168;27.604;2023-03-11T16:14:19;3.23;;;1.50;;
60426;SDS011;46274;47.168;27.604;2023-03-11T16:20:49;5.67;;;2.10;;
60426;SDS011;46274;47.168;27.604;2023-03-11T16:27:30;2.70;;;1.00;;
60426;SDS011;46274;47.168;27.604;2023-03-11T16:33:50;3.70;;;1.67;;
60426;SDS011;46274;47.168;27.604;2023-03-11T16:39:52;6.63;;;2.57;;
60426;SDS011;46274;47.168;27.604;2023-03-11T16:46:23;3.90;;;1.23;;
60426;SDS011;46274;47.168;27.604;2023-03-11T16:52:33;2.60;;;1.10;;
60426;SDS011;46274;47.168;27.604;2023-03-11T16:58:52;12.00;;;4.80;;
60426;SDS011;46274;47.168;27.604;2023-03-11T17:05:42;12.77;;;3.30;;
60426;SDS011;46274;47.168;27.604;2023-03-11T17:12:24;10.47;;;1.30;;
60426;SDS011;46274;47.168;27.604;2023-03-11T17:18:49;5.37;;;1.30;;
60426;SDS011;46274;47.168;27.604;2023-03-11T17:25:07;2.50;;;1.20;;
60426;SDS011;46274;47.168;27.604;2023-03-11T17:31:24;4.97;;;1.50;;
60426;SDS011;46274;47.168;27.604;2023-03-11T17:37:33;3.90;;;0.77;;
60426;SDS011;46274;47.168;27.604;2023-03-11T17:50:50;8.90;;;0.83;;
60426;SDS011;46274;47.168;27.604;2023-03-11T17:57:07;4.43;;;0.80;;
60426;SDS011;46274;47.168;27.604;2023-03-11T18:03:45;1.03;;;0.50;;
60426;SDS011;46274;47.168;27.604;2023-03-11T18:09:51;2.00;;;0.80;;
60426;SDS011;46274;47.168;27.604;2023-03-11T18:15:59;3.23;;;0.80;;
60426;SDS011;46274;47.168;27.604;2023-03-11T18:22:47;1.37;;;0.70;;
60426;SDS011;46274;47.168;27.604;2023-03-11T18:29:20;2.77;;;0.80;;
60426;SDS011;46274;47.168;27.604;2023-03-11T18:35:38;1.70;;;0.80;;
60426;SDS011;46274;47.168;27.604;2023-03-11T18:41:41;1.23;;;0.70;;
60426;SDS011;46274;47.168;27.604;2023-03-11T18:47:53;1.63;;;0.90;;
60426;SDS011;46274;47.168;27.604;2023-03-11T18:53:56;1.80;;;0.70;;
60426;SDS011;46274;47.168;27.604;2023-03-11T19:00:10;1.87;;;0.70;;
60426;SDS011;46274;47.168;27.604;2023-03-11T19:06:21;1.53;;;1.00;;
60426;SDS011;46274;47.168;27.604;2023-03-11T19:12:34;2.27;;;0.87;;
60426;SDS011;46274;47.168;27.604;2023-03-11T19:18:43;4.70;;;2.03;;
60426;SDS011;46274;47.168;27.604;2023-03-11T19:24:56;6.43;;;2.60;;
60426;SDS011;46274;47.168;27.604;2023-03-11T19:31:00;6.20;;;2.50;;
60426;SDS011;46274;47.168;27.604;2023-03-11T19:37:26;5.33;;;2.20;;
60426;SDS011;46274;47.168;27.604;2023-03-11T19:43:43;5.13;;;2.10;;
60426;SDS011;46274;47.168;27.604;2023-03-11T19:50:11;9.87;;;3.30;;
60426;SDS011;46274;47.168;27.604;2023-03-11T19:56:14;4.43;;;2.57;;
60426;SDS011;46274;47.168;27.604;2023-03-11T20:02:24;3.70;;;1.87;;
60426;SDS011;46274;47.168;27.604;2023-03-11T20:08:27;4.67;;;2.20;;
60426;SDS011;46274;47.168;27.604;2023-03-11T20:14:39;4.43;;;2.03;;
60426;SDS011;46274;47.168;27.604;2023-03-11T20:20:42;4.53;;;1.60;;
60426;SDS011;46274;47.168;27.604;2023-03-11T20:26:58;3.77;;;2.00;;
60426;SDS011;46274;47.168;27.604;2023-03-11T20:33:02;4.60;;;2.17;;
60426;SDS011;46274;47.168;27.604;2023-03-11T20:39:07;4.37;;;1.90;;
60426;SDS011;46274;47.168;27.604;2023-03-11T20:45:19;4.07;;;2.07;;
60426;SDS011;46274;47.168;27.604;2023-03-11T20:51:24;2.00;;;1.20;;
60426;SDS011;46274;47.168;27.604;2023-03-11T20:57:40;6.03;;;1.50;;
60426;SDS011;46274;47.168;27.604;2023-03-11T21:03:47;3.77;;;1.50;;
60426;SDS011;46274;47.168;27.604;2023-03-11T21:09:53;3.43;;;1.40;;
60426;SDS011;46274;47.168;27.604;2023-03-11T21:16:06;2.50;;;1.40;;
60426;SDS011;46274;47.168;27.604;2023-03-11T21:22:30;3.33;;;1.40;;
60426;SDS011;46274;47.168;27.604;2023-03-11T21:29:38;5.37;;;2.03;;
60426;SDS011;46274;47.168;27.604;2023-03-11T21:35:54;3.17;;;1.60;;
60426;SDS011;46274;47.168;27.604;2023-03-11T21:42:27;3.20;;;1.50;;
60426;SDS011;46274;47.168;27.604;2023-03-11T21:48:35;4.20;;;1.53;;
60426;SDS011;46274;47.168;27.604;2023-03-11T21:54:47;2.20;;;1.20;;
60426;SDS011;46274;47.168;27.604;2023-03-11T22:01:01;2.63;;;1.20;;
60426;SDS011;46274;47.168;27.604;2023-03-11T22:07:11;3.73;;;1.13;;
60426;SDS011;46274;47.168;27.604;2023-03-11T22:13:21;2.07;;;1.10;;
60426;SDS011;46274;47.168;27.604;2023-03-11T22:19:24;4.03;;;0.73;;
60426;SDS011;46274;47.168;27.604;2023-03-11T22:25:29;2.13;;;0.93;;
60426;SDS011;46274;47.168;27.604;2023-03-11T22:31:59;2.90;;;0.90;;
60426;SDS011;46274;47.168;27.604;2023-03-11T22:38:45;2.30;;;1.13;;
60426;SDS011;46274;47.168;27.604;2023-03-11T22:45:34;2.00;;;1.37;;
60426;SDS011;46274;47.168;27.604;2023-03-11T22:51:57;3.90;;;1.10;;
60426;SDS011;46274;47.168;27.604;2023-03-11T22:58:12;3.83;;;1.27;;
60426;SDS011;46274;47.168;27.604;2023-03-11T23:04:17;3.73;;;1.53;;
60426;SDS011;46274;47.168;27.604;2023-03-11T23:10:19;3.00;;;1.63;;
60426;SDS011;46274;47.168;27.604;2023-03-11T23:16:35;2.07;;;1.37;;
60426;SDS011;46274;47.168;27.604;2023-03-11T23:22:39;5.47;;;1.70;;
60426;SDS011;46274;47.168;27.604;2023-03-11T23:28:48;4.53;;;1.70;;
60426;SDS011;46274;47.168;27.604;2023-03-11T23:35:10;3.63;;;1.47;;
60426;SDS011;46274;47.168;27.604;2023-03-11T23:41:16;3.53;;;1.80;;
60426;SDS011;46274;47.168;27.604;2023-03-11T23:47:30;5.33;;;1.70;;
60426;SDS011;46274;47.168;27.604;2023-03-11T23:53:49;4.20;;;1.50;;
